Weather History for Shawnee, OK

Change the Weather History Date:

Sunday, October 6, 2013

  Actual Average (KTIK) Record (KTIK)
Temperature  
Mean Temperature 60 °F -  
Max Temperature 71 °F 71 °F 85 °F (2011)
Min Temperature 48 °F 53 °F 40 °F (2012)
Degree Days  
Heating Degree Days 6    
Growing Degree Days 10 (Base 50)    
Moisture  
Dew Point 43 °F    
Average Humidity 58    
Maximum Humidity 88    
Minimum Humidity 31    
Precipitation  
Precipitation 0.00 in - - ()
Sea Level Pressure  
Sea Level Pressure 30.08 in    
Wind  
Wind Speed 5 mph (WNW)    
Max Wind Speed 15 mph    
Max Gust Speed 22 mph    
Visibility 10 miles    
Events      
Averages and records for this station are not official NWS values.
T = Trace of Precipitation, MM = Missing Value Source: NWS Daily Summary

Daily Weather History Graph

Daily Weather History Graph

Search for Another Location

Airport:

Trip Planner

Search our weather history database for the weather conditions in past years. The results will help you decide how hot, cold, wet, or windy it might be!

Date:

Astronomy

Oct. 06, 2013 Rise Set
Actual Time 7:26 AM CDT 7:04 PM CDT
Civil Twilight 7:01 AM CDT 7:29 PM CDT
Nautical Twilight 6:31 AM CDT 7:58 PM CDT
Astronomical Twilight 6:02 AM CDT 8:28 PM CDT
Moon 9:07 AM CDT (10/6) 8:10 PM CDT (10/6)
Length of Visible Light 12h 28m
Length of Day
11h 37m
Waxing Crescent, 3% of the Moon is Illuminated
Oct 6
Waxing Crescent
Oct 11
First Quarter
Oct 18
Full
Oct 26
Last Quarter
Nov 3
New

Hourly Weather History & Observations

Time (CDT) Temp. Dew Point Humidity Pressure Visibility Wind Dir Wind Speed Gust Speed Precip Events Conditions
12:15 AM 51.8 °F 46.4 °F 82% 30.08 in 10.0 mi Calm Calm - N/A   Clear
12:35 AM 51.8 °F 46.4 °F 82% 30.08 in 10.0 mi Calm Calm - N/A   Clear
12:55 AM 51.8 °F 48.2 °F 88% 30.07 in 10.0 mi Calm Calm - N/A   Clear
1:15 AM 51.8 °F 46.4 °F 82% 30.08 in 10.0 mi Calm Calm - N/A   Clear
1:35 AM 51.8 °F 44.6 °F 76% 30.08 in 10.0 mi Calm Calm - N/A   Clear
1:55 AM 51.8 °F 44.6 °F 76% 30.08 in 10.0 mi Calm Calm - N/A   Clear
2:15 AM 51.8 °F 44.6 °F 76% 30.09 in 10.0 mi West 4.6 mph - N/A   Clear
2:35 AM 51.8 °F 44.6 °F 76% 30.08 in 10.0 mi West 4.6 mph - N/A   Clear
2:55 AM 51.8 °F 46.4 °F 82% 30.08 in 10.0 mi West 3.5 mph - N/A   Clear
3:15 AM 51.8 °F 46.4 °F 82% 30.07 in 10.0 mi West 4.6 mph - N/A   Clear
3:35 AM 51.8 °F 46.4 °F 82% 30.06 in 10.0 mi West 4.6 mph - N/A   Clear
3:55 AM 51.8 °F 46.4 °F 82% 30.06 in 10.0 mi West 3.5 mph - N/A   Clear
4:15 AM 51.8 °F 46.4 °F 82% 30.06 in 10.0 mi West 3.5 mph - N/A   Clear
4:35 AM 50.0 °F 46.4 °F 87% 30.06 in 10.0 mi NW 9.2 mph - N/A   Clear
4:55 AM 51.8 °F 42.8 °F 71% 30.06 in 10.0 mi NW 9.2 mph - N/A   Clear
5:15 AM 51.8 °F 42.8 °F 71% 30.07 in 10.0 mi NW 9.2 mph - N/A   Scattered Clouds
5:35 AM 51.8 °F 42.8 °F 71% 30.07 in 10.0 mi NW 8.1 mph - N/A   Scattered Clouds
5:55 AM 51.8 °F 41.0 °F 67% 30.07 in 10.0 mi NW 6.9 mph - N/A   Clear
6:15 AM 51.8 °F 41.0 °F 67% 30.08 in 10.0 mi WNW 8.1 mph - N/A   Clear
6:35 AM 51.8 °F 39.2 °F 62% 30.09 in 10.0 mi WNW 8.1 mph - N/A   Scattered Clouds
6:55 AM 51.8 °F 37.4 °F 58% 30.09 in 10.0 mi WNW 5.8 mph - N/A   Scattered Clouds
7:15 AM 51.8 °F 39.2 °F 62% 30.10 in 10.0 mi West 4.6 mph - N/A   Scattered Clouds
7:35 AM 48.2 °F 37.4 °F 66% 30.10 in 10.0 mi West 4.6 mph - N/A   Scattered Clouds
7:55 AM 48.2 °F 39.2 °F 71% 30.10 in 10.0 mi WNW 6.9 mph - N/A   Scattered Clouds
8:15 AM 51.8 °F 41.0 °F 67% 30.11 in 10.0 mi West 4.6 mph - N/A   Clear
8:35 AM 53.6 °F 41.0 °F 62% 30.11 in 10.0 mi WNW 5.8 mph - N/A   Clear
8:55 AM 53.6 °F 41.0 °F 62% 30.12 in 10.0 mi WNW 6.9 mph - N/A   Clear
9:15 AM 55.4 °F 41.0 °F 58% 30.12 in 10.0 mi NW 9.2 mph - N/A   Clear
9:35 AM 55.4 °F 41.0 °F 58% 30.12 in 10.0 mi NW 8.1 mph - N/A   Clear
9:55 AM 57.2 °F 41.0 °F 55% 30.11 in 10.0 mi NW 13.8 mph - N/A   Clear
10:15 AM 59.0 °F 39.2 °F 48% 30.12 in 10.0 mi NW 11.5 mph - N/A   Clear
10:35 AM 60.8 °F 41.0 °F 48% 30.11 in 10.0 mi NW 13.8 mph 18.4 mph N/A   Clear
10:55 AM 60.8 °F 41.0 °F 48% 30.12 in 10.0 mi NNW 15.0 mph - N/A   Clear
11:15 AM 60.8 °F 41.0 °F 48% 30.12 in 10.0 mi NNW 13.8 mph 19.6 mph N/A   Clear
11:35 AM 62.6 °F 41.0 °F 45% 30.12 in 10.0 mi NW 12.7 mph - N/A   Clear
11:55 AM 62.6 °F 42.8 °F 48% 30.12 in 10.0 mi NW 13.8 mph - N/A   Clear
12:15 PM 64.4 °F 42.8 °F 45% 30.12 in 10.0 mi NW 15.0 mph - N/A   Clear
12:35 PM 66.2 °F 42.8 °F 43% 30.12 in 10.0 mi NW 12.7 mph 20.7 mph N/A   Clear
12:55 PM 68.0 °F 42.8 °F 40% 30.11 in 10.0 mi NW 9.2 mph - N/A   Clear
1:15 PM 68.0 °F 44.6 °F 43% 30.10 in 10.0 mi NW 12.7 mph - N/A   Clear
1:35 PM 69.8 °F 46.4 °F 43% 30.09 in 10.0 mi NW 11.5 mph - N/A   Clear
1:55 PM 71.6 °F 46.4 °F 41% 30.09 in 10.0 mi NW 15.0 mph 20.7 mph N/A   Clear
2:15 PM 71.6 °F 46.4 °F 41% 30.08 in 10.0 mi NW 15.0 mph 19.6 mph N/A   Clear
2:35 PM 71.6 °F 46.4 °F 41% 30.08 in 10.0 mi NW 15.0 mph 20.7 mph N/A   Clear
2:55 PM 71.6 °F 46.4 °F 41% 30.08 in 10.0 mi NNW 12.7 mph 19.6 mph N/A   Clear
3:15 PM 71.6 °F 46.4 °F 41% 30.07 in 10.0 mi NW 12.7 mph 17.3 mph N/A   Clear
3:35 PM 71.6 °F 44.6 °F 38% 30.07 in 10.0 mi NW 15.0 mph - N/A   Clear
3:55 PM 71.6 °F 44.6 °F 38% 30.06 in 10.0 mi NW 11.5 mph 21.9 mph N/A   Clear
4:15 PM 71.6 °F 44.6 °F 38% 30.06 in 10.0 mi WNW 12.7 mph 17.3 mph N/A   Clear
4:35 PM 71.6 °F 41.0 °F 33% 30.06 in 10.0 mi WNW 11.5 mph 20.7 mph N/A   Clear
4:55 PM 71.6 °F 41.0 °F 33% 30.06 in 10.0 mi NW 10.4 mph - N/A   Clear
5:15 PM 71.6 °F 39.2 °F 31% 30.06 in 10.0 mi NW 11.5 mph 18.4 mph N/A   Clear
5:35 PM 71.6 °F 41.0 °F 33% 30.06 in 10.0 mi NW 10.4 mph - N/A   Clear
5:55 PM 71.6 °F 41.0 °F 33% 30.06 in 10.0 mi WNW 8.1 mph - N/A   Clear
6:15 PM 71.6 °F 42.8 °F 35% 30.06 in 10.0 mi WNW 5.8 mph - N/A   Clear
6:35 PM 71.6 °F 44.6 °F 38% 30.06 in 10.0 mi WNW 4.6 mph - N/A   Clear
6:55 PM 68.0 °F 42.8 °F 40% 30.06 in 10.0 mi WNW 4.6 mph - N/A   Clear
7:15 PM 62.6 °F 42.8 °F 48% 30.06 in 10.0 mi NW 3.5 mph - N/A   Clear
7:35 PM 60.8 °F 42.8 °F 52% 30.06 in 10.0 mi WNW 3.5 mph - N/A   Clear
7:55 PM 60.8 °F 42.8 °F 52% 30.06 in 10.0 mi NW 3.5 mph - N/A   Clear
8:15 PM 59.0 °F 42.8 °F 55% 30.06 in 10.0 mi Calm Calm - N/A   Clear
8:35 PM 57.2 °F 41.0 °F 55% 30.07 in 10.0 mi Calm Calm - N/A   Clear
8:55 PM 55.4 °F 37.4 °F 51% 30.07 in 10.0 mi Calm Calm - N/A   Clear
9:15 PM 55.4 °F 39.2 °F 54% 30.07 in 10.0 mi Calm Calm - N/A   Clear
9:35 PM 55.4 °F 42.8 °F 63% 30.08 in 10.0 mi Calm Calm - N/A   Clear
9:55 PM 53.6 °F 42.8 °F 67% 30.09 in 4.0 mi SSW 3.5 mph - N/A   Haze
10:15 PM 53.6 °F 42.8 °F 67% 30.09 in 10.0 mi Calm Calm - N/A   Clear
10:35 PM 51.8 °F 39.2 °F 62% 30.09 in 10.0 mi Calm Calm - N/A   Clear
10:55 PM 51.8 °F 41.0 °F 67% 30.09 in 7.0 mi Calm Calm - N/A   Clear
11:15 PM 51.8 °F 41.0 °F 67% 30.09 in 3.0 mi Calm Calm - N/A   Haze
11:35 PM 51.8 °F 41.0 °F 67% 30.09 in 2.0 mi Calm Calm - N/A   Haze
11:55 PM 51.8 °F 41.0 °F 67% 30.09 in 4.0 mi Calm Calm - N/A   Haze